KALB/ALB METAR and TAF weather

Enter ICAO airport designator
Station Type Date Time Source
KALB METAR 2020/04/06 08:51 UTC NOAA

KALB 060851Z 30007KT 10SM CLR 06/02 A3003 RMK AO2 SLP171 T00560017 53003


Station Type Date Time Source
KALB Decoded METAR 2020/04/06 08:51 UTC NOAA

ALBANY INTERNATIONAL AIRPORT, NY, United States (KALB) 42-45N 73-48W
Apr 06, 2020 - 04:51 AM EDT / 2020.04.06 0851 UTC
Wind: from the WNW (300 degrees) at 8 MPH (7 KT):0
Visibility: 10 mile(s):0
Sky conditions: clear
Temperature: 42.1 F (5.6 C)
Dew Point: 35.1 F (1.7 C)
Relative Humidity: 75%
Pressure (altimeter): 30.03 in. Hg (1016 hPa)
Pressure tendency: 0.01 inches (0.3 hPa) higher than three hours ago
ob: KALB 060851Z 30007KT 10SM CLR 06/02 A3003 RMK AO2 SLP171 T00560017 53003
cycle: 9

Station Type Date Time Source
KALB TAF 2020/04/06 06:22 UTC NOAA

TAF KALB 060520Z 0606/0706 30008KT P6SM FEW150 FEW250
FM061600 30012G20KT P6SM SCT200
FM070000 29005KT P6SM BKN180

Example: see airport list